Time;durP1;ratioP1;P1;durP2;ratioP2;P2;SDS_P1;SDS_P2;PMS_P1;PMS_P2;Temp;Humidity;BMP_temperature;BMP_pressure;BME280_temperature;BME280_humidity;BME280_pressure;Samples;Min_cycle;Max_cycle;Signal;HPM_P1;HPM_P2
2021/04/18 04:01:50;;;;;;;13.52;11.15;;;6.40;99.90;;;;;;5258340;22;84971;-85
2021/04/18 04:04:16;;;;;;;14.55;11.90;;;6.40;99.90;;;;;;4940039;28;83484;-84
2021/04/18 04:06:42;;;;;;;13.70;10.70;;;6.40;99.90;;;;;;4952755;28;82521;-84
2021/04/18 04:09:07;;;;;;;11.90;10.65;;;6.40;99.90;;;;;;4952281;28;82736;-84
2021/04/18 04:11:33;;;;;;;13.30;11.85;;;6.40;99.90;;;;;;4946393;28;82530;-84
2021/04/18 04:13:59;;;;;;;15.00;10.88;;;6.40;99.90;;;;;;4952695;28;82855;-84
2021/04/18 04:16:25;;;;;;;12.60;11.30;;;6.40;99.90;;;;;;4952904;28;82525;-84
2021/04/18 04:18:51;;;;;;;14.27;12.50;;;6.50;99.90;;;;;;4951903;28;82343;-84
2021/04/18 04:21:17;;;;;;;12.75;11.40;;;6.50;99.90;;;;;;4951872;28;82905;-84
2021/04/18 04:23:42;;;;;;;14.00;11.73;;;6.40;99.90;;;;;;4951612;28;83624;-84
2021/04/18 04:26:09;;;;;;;14.00;12.52;;;6.50;99.90;;;;;;4952130;28;82809;-84
2021/04/18 04:28:35;;;;;;;15.00;11.80;;;6.40;99.90;;;;;;4950584;28;82670;-84
2021/04/18 04:31:01;;;;;;;13.15;11.75;;;6.40;99.90;;;;;;4951723;28;82676;-84
2021/04/18 04:33:31;;;;;;;13.82;12.32;;;6.40;99.90;;;;;;4952142;28;82306;-84
2021/04/18 04:35:57;;;;;;;13.98;11.50;;;6.40;99.90;;;;;;4952327;28;82657;-84
2021/04/18 04:38:22;;;;;;;14.07;12.25;;;6.40;99.90;;;;;;4950496;28;82589;-85
2021/04/18 04:40:48;;;;;;;15.80;13.57;;;6.40;99.90;;;;;;4951294;28;83493;-84
2021/04/18 04:43:15;;;;;;;16.02;12.68;;;6.40;99.90;;;;;;4953170;28;82583;-85
2021/04/18 04:45:41;;;;;;;14.43;12.85;;;6.40;99.90;;;;;;4951140;28;82779;-84
2021/04/18 04:48:07;;;;;;;13.70;12.25;;;6.40;99.90;;;;;;4951660;28;81846;-84
2021/04/18 04:50:32;;;;;;;13.98;12.52;;;6.40;99.90;;;;;;4951879;28;82744;-84
2021/04/18 04:52:59;;;;;;;19.00;12.75;;;6.50;99.90;;;;;;4950795;28;82737;-84
2021/04/18 04:55:25;;;;;;;16.10;12.95;;;6.50;99.90;;;;;;4951201;28;82745;-84
2021/04/18 04:57:50;;;;;;;13.45;11.98;;;6.50;99.90;;;;;;4940765;28;82512;-85
2021/04/18 05:00:17;;;;;;;14.32;12.63;;;6.60;99.90;;;;;;4951643;28;82512;-84
2021/04/18 05:02:42;;;;;;;15.85;13.10;;;6.60;99.90;;;;;;4943993;28;82873;-84
2021/04/18 05:05:09;;;;;;;17.23;12.98;;;6.60;99.90;;;;;;4944927;28;83582;-86
2021/04/18 05:07:34;;;;;;;15.65;13.50;;;6.60;99.90;;;;;;4945837;28;82626;-84
2021/04/18 05:10:00;;;;;;;14.10;12.60;;;6.60;99.90;;;;;;4946439;28;83108;-84
2021/04/18 05:12:26;;;;;;;16.08;14.48;;;6.30;99.90;;;;;;4944132;28;82779;-86
2021/04/18 05:14:51;;;;;;;15.63;13.32;;;6.60;99.90;;;;;;4944488;28;82691;-83
2021/04/18 05:17:17;;;;;;;15.75;12.88;;;6.70;99.90;;;;;;4948786;28;82536;-83
2021/04/18 05:19:43;;;;;;;15.98;13.07;;;6.70;99.90;;;;;;4943168;28;82428;-84
2021/04/18 05:22:08;;;;;;;15.00;13.30;;;6.70;99.90;;;;;;4953005;28;82429;-83
2021/04/18 05:24:34;;;;;;;15.88;13.13;;;6.70;99.90;;;;;;4952098;28;82110;-84
2021/04/18 05:27:00;;;;;;;14.73;12.82;;;6.70;99.90;;;;;;4947136;28;81896;-84
2021/04/18 05:29:26;;;;;;;14.50;12.10;;;6.80;99.90;;;;;;4946824;28;82052;-84
2021/04/18 05:31:53;;;;;;;13.55;12.07;;;6.80;99.90;;;;;;4949149;28;82956;-84
2021/04/18 05:34:19;;;;;;;15.63;13.30;;;6.80;99.90;;;;;;4954906;28;82682;-85
2021/04/18 05:36:44;;;;;;;17.45;13.68;;;6.90;99.90;;;;;;4951295;28;82758;-84
2021/04/18 05:39:10;;;;;;;15.43;13.43;;;6.90;99.90;;;;;;4954787;28;82125;-84
2021/04/18 05:41:36;;;;;;;16.30;13.48;;;6.90;99.90;;;;;;4953539;28;82187;-84
2021/04/18 05:44:04;;;;;;;17.02;12.20;;;6.90;99.90;;;;;;4963605;28;82909;-85
2021/04/18 05:46:38;;;;;;;14.25;12.35;;;6.90;99.90;;;;;;4969462;28;82135;-83
2021/04/18 05:49:03;;;;;;;16.20;13.15;;;7.00;99.90;;;;;;4969314;28;82587;-83
2021/04/18 05:51:29;;;;;;;17.65;14.60;;;7.00;99.90;;;;;;4963368;28;82886;-84
2021/04/18 05:53:55;;;;;;;14.65;12.13;;;7.00;99.90;;;;;;4954009;28;82771;-86
2021/04/18 05:56:21;;;;;;;16.00;12.43;;;7.00;99.90;;;;;;4958552;28;82728;-83
2021/04/18 05:58:46;;;;;;;16.20;13.98;;;7.00;99.90;;;;;;4946158;28;82952;-83
2021/04/18 06:01:12;;;;;;;18.35;13.80;;;7.00;99.90;;;;;;4949770;28;86489;-84
2021/04/18 06:03:38;;;;;;;17.40;14.82;;;7.00;99.90;;;;;;4946184;28;82787;-83
2021/04/18 06:06:04;;;;;;;16.42;13.50;;;7.00;99.90;;;;;;4947024;28;83019;-84
2021/04/18 06:08:30;;;;;;;18.58;16.75;;;;;;;;;;4949865;28;82939;-86
2021/04/18 06:10:55;;;;;;;15.82;13.25;;;7.10;99.90;;;;;;4954574;28;82900;-84
2021/04/18 06:13:21;;;;;;;15.43;12.57;;;7.30;99.90;;;;;;4954565;28;82535;-84
2021/04/18 06:15:47;;;;;;;15.30;13.50;;;7.30;99.90;;;;;;4948000;28;82960;-84
2021/04/18 06:18:13;;;;;;;16.35;14.43;;;7.40;99.90;;;;;;4948876;28;82091;-84
2021/04/18 06:20:39;;;;;;;19.88;14.52;;;7.50;99.90;;;;;;4951900;28;82357;-86
2021/04/18 06:23:05;;;;;;;16.48;13.80;;;7.50;99.90;;;;;;4946310;28;83336;-85
2021/04/18 06:25:30;;;;;;;14.75;13.23;;;7.60;99.90;;;;;;4949861;28;83129;-85
2021/04/18 06:27:56;;;;;;;16.17;13.95;;;7.70;99.90;;;;;;4952015;28;82476;-86
2021/04/18 06:30:22;;;;;;;14.32;12.85;;;7.80;99.90;;;;;;4949373;28;83951;-86
2021/04/18 06:32:48;;;;;;;16.08;13.70;;;7.90;99.80;;;;;;4946677;28;82887;-85
2021/04/18 06:35:14;;;;;;;16.60;13.88;;;8.00;99.20;;;;;;4952441;28;83055;-85
2021/04/18 06:37:39;;;;;;;15.45;13.18;;;7.90;99.20;;;;;;4943009;28;82787;-85
2021/04/18 06:40:06;;;;;;;16.38;14.68;;;8.10;98.60;;;;;;4948146;28;83217;-86
2021/04/18 06:42:37;;;;;;;28.33;25.88;;;8.10;98.40;;;;;;4941554;28;82680;-85
2021/04/18 06:45:07;;;;;;;16.77;14.10;;;8.10;98.40;;;;;;4954451;28;82672;-85
2021/04/18 06:47:38;;;;;;;18.42;16.58;;;8.20;98.20;;;;;;4951174;28;83413;-84
2021/04/18 06:50:05;;;;;;;;;;;8.20;98.00;;;;;;4949004;28;83204;-85
2021/04/18 06:52:33;;;;;;;20.50;18.70;;;8.30;98.10;;;;;;4955140;28;82843;-84
2021/04/18 06:54:59;;;;;;;16.58;13.40;;;8.30;98.00;;;;;;4932695;28;82894;-85
2021/04/18 06:57:25;;;;;;;15.30;13.25;;;8.30;97.90;;;;;;4951653;28;83268;-85
2021/04/18 06:59:50;;;;;;;16.20;14.30;;;8.40;98.00;;;;;;4952954;28;82733;-84
2021/04/18 07:02:32;;;;;;;16.30;13.73;;;8.40;97.70;;;;;;4949691;28;83630;-84
2021/04/18 07:04:58;;;;;;;15.90;14.20;;;8.60;97.10;;;;;;4951916;28;82907;-84
2021/04/18 07:07:36;;;;;;;16.23;13.48;;;8.70;97.30;;;;;;4946668;28;81882;-83
2021/04/18 07:10:04;;;;;;;17.92;14.80;;;8.80;96.10;;;;;;4951663;28;82983;-87
2021/04/18 07:12:32;;;;;;;16.98;14.73;;;9.00;96.10;;;;;;4951040;28;82975;-85
2021/04/18 07:14:59;;;;;;;15.30;13.70;;;9.10;95.20;;;;;;4949520;28;82602;-81
2021/04/18 07:17:25;;;;;;;16.02;13.65;;;9.20;95.20;;;;;;4944545;28;83226;-83
2021/04/18 07:20:10;;;;;;;17.48;15.65;;;9.70;94.90;;;;;;4944350;28;82989;-83
2021/04/18 07:22:37;;;;;;;17.48;13.80;;;9.40;94.80;;;;;;4946135;28;85317;-85
2021/04/18 07:25:04;;;;;;;16.50;14.50;;;9.50;94.60;;;;;;4945287;28;82576;-82
2021/04/18 07:28:05;;;;;;;16.17;14.07;;;9.70;94.60;;;;;;4949334;28;83362;-83
2021/04/18 07:30:46;;;;;;;16.70;13.75;;;9.80;94.20;;;;;;4890579;28;85931;-86
2021/04/18 07:33:13;;;;;;;15.18;13.60;;;9.70;93.50;;;;;;4946595;28;84049;-86
2021/04/18 07:35:42;;;;;;;15.52;13.43;;;9.70;93.70;;;;;;4950786;28;82107;-85
2021/04/18 07:38:21;;;;;;;15.32;13.52;;;9.90;93.90;;;;;;4946077;28;82906;-85
2021/04/18 07:40:48;;;;;;;16.20;14.02;;;9.90;93.70;;;;;;4944240;28;83843;-86
2021/04/18 07:43:15;;;;;;;15.45;13.85;;;9.90;93.50;;;;;;4956482;28;83848;-85
2021/04/18 07:45:44;;;;;;;15.73;13.48;;;9.90;93.40;;;;;;4956205;28;82745;-85
2021/04/18 07:48:13;;;;;;;16.20;13.25;;;10.00;93.50;;;;;;4952634;28;83225;-84
2021/04/18 07:50:41;;;;;;;17.00;13.93;;;10.00;93.20;;;;;;4945793;28;82552;-85
2021/04/18 07:53:07;;;;;;;16.70;14.07;;;10.00;93.00;;;;;;4947263;28;83278;-84
2021/04/18 07:55:34;;;;;;;14.95;13.35;;;9.90;92.60;;;;;;4953539;28;82631;-85
2021/04/18 07:58:00;;;;;;;17.77;15.68;;;9.30;94.30;;;;;;4952011;28;82577;-86
2021/04/18 08:00:26;;;;;;;17.52;15.85;;;;;;;;;;4953356;28;83962;-85
2021/04/18 08:02:54;;;;;;;16.60;15.00;;;10.60;93.70;;;;;;4947392;28;82744;-84
2021/04/18 08:05:24;;;;;;;18.10;16.20;;;10.20;91.50;;;;;;4951809;28;82485;-85
2021/04/18 08:08:21;;;;;;;17.40;15.73;;;9.60;94.30;;;;;;4945297;28;83760;-85
2021/04/18 08:10:51;;;;;;;18.48;16.65;;;10.30;90.60;;;;;;4936612;28;82945;-86
2021/04/18 08:13:20;;;;;;;16.65;13.77;;;10.30;90.90;;;;;;4955919;28;83213;-86
2021/04/18 08:15:46;;;;;;;17.15;14.95;;;10.30;91.30;;;;;;4955666;28;81977;-85
2021/04/18 08:18:14;;;;;;;15.52;13.77;;;10.30;91.40;;;;;;4951488;28;82633;-85
2021/04/18 08:20:47;;;;;;;17.70;15.23;;;10.30;91.30;;;;;;4947421;28;84292;-86
2021/04/18 08:23:16;;;;;;;16.40;14.57;;;10.30;91.00;;;;;;4947289;28;82619;-87
2021/04/18 08:26:04;;;;;;;16.33;14.52;;;10.40;90.80;;;;;;4958144;28;82037;-86
2021/04/18 08:28:52;;;;;;;17.38;15.60;;;11.00;93.20;;;;;;4936125;28;83181;-85
2021/04/18 08:31:29;;;;;;;16.80;15.10;;;10.50;90.20;;;;;;4944193;28;83617;-86
2021/04/18 08:34:05;;;;;;;16.58;14.43;;;10.50;90.40;;;;;;4946225;28;82720;-86
2021/04/18 08:36:45;;;;;;;18.30;16.50;;;11.10;88.50;;;;;;4941522;28;82610;-87
2021/04/18 08:39:14;;;;;;;17.73;15.77;;;11.00;88.70;;;;;;4944759;28;83721;-87
2021/04/18 08:41:40;;;;;;;15.98;14.32;;;11.30;88.60;;;;;;4932884;28;82970;-86
2021/04/18 08:44:25;;;;;;;18.10;16.40;;;12.10;88.80;;;;;;4944120;28;82496;-87
2021/04/18 08:46:59;;;;;;;15.45;13.90;;;11.90;85.20;;;;;;4942556;28;82648;-86
2021/04/18 08:49:30;;;;;;;15.43;13.68;;;12.00;83.60;;;;;;4945140;28;83768;-87
2021/04/18 08:51:57;;;;;;;17.15;14.93;;;12.20;81.60;;;;;;4947857;28;83403;-88
2021/04/18 08:54:31;;;;;;;17.05;14.88;;;12.20;80.00;;;;;;4949234;28;82770;-86
2021/04/18 08:57:00;;;;;;;17.42;15.55;;;12.20;79.40;;;;;;4945947;28;82549;-85
2021/04/18 08:59:26;;;;;;;17.10;15.32;;;12.20;79.60;;;;;;4930671;28;83325;-84
2021/04/18 09:01:59;;;;;;;17.85;16.05;;;12.40;79.00;;;;;;4946204;28;83131;-85
2021/04/18 09:04:26;;;;;;;16.30;14.60;;;12.40;76.10;;;;;;4950744;28;82501;-85
2021/04/18 09:06:54;;;;;;;17.40;15.02;;;12.50;76.70;;;;;;4948047;28;82546;-85
2021/04/18 09:09:22;;;;;;;18.38;14.70;;;12.80;75.40;;;;;;4943330;28;83024;-85
2021/04/18 09:11:49;;;;;;;17.15;15.32;;;13.00;74.30;;;;;;4941660;28;83273;-86
2021/04/18 09:14:16;;;;;;;21.08;15.52;;;13.30;74.50;;;;;;4950656;28;82712;-86
2021/04/18 09:16:44;;;;;;;14.88;13.23;;;13.90;73.70;;;;;;4944906;28;82669;-86
2021/04/18 09:19:24;;;;;;;14.75;13.23;;;14.30;69.40;;;;;;4946229;28;82714;-87
2021/04/18 09:21:57;;;;;;;16.17;14.43;;;14.70;67.20;;;;;;4941932;28;83173;-86
2021/04/18 09:24:23;;;;;;;18.08;16.48;;;16.40;63.60;;;;;;4950977;28;83015;-86
2021/04/18 09:27:01;;;;;;;15.48;13.88;;;16.10;61.10;;;;;;4946698;28;82770;-86
2021/04/18 09:29:28;;;;;;;16.60;14.35;;;17.70;57.70;;;;;;4947431;28;83195;-86
2021/04/18 09:32:02;;;;;;;15.95;14.35;;;18.90;52.50;;;;;;4946222;28;83976;-86
2021/04/18 09:34:28;;;;;;;15.93;14.43;;;19.90;50.00;;;;;;4947763;28;82847;-86
2021/04/18 09:36:56;;;;;;;15.40;14.00;;;19.70;48.10;;;;;;4949297;28;82532;-86
2021/04/18 09:39:27;;;;;;;14.23;12.82;;;20.20;47.50;;;;;;4949967;28;82981;-86
2021/04/18 09:41:55;;;;;;;17.08;15.60;;;21.00;45.30;;;;;;4949420;28;83070;-86
2021/04/18 09:44:45;;;;;;;15.07;13.63;;;21.20;43.40;;;;;;4944437;28;82902;-86
2021/04/18 09:47:28;;;;;;;15.98;14.38;;;21.40;42.80;;;;;;4950016;28;81930;-86
2021/04/18 09:49:58;;;;;;;16.33;14.68;;;23.50;41.10;;;;;;4951316;28;82229;-86
2021/04/18 09:52:27;;;;;;;15.02;13.63;;;24.10;40.00;;;;;;4945211;28;82899;-87
2021/04/18 09:54:53;;;;;;;16.05;14.60;;;25.80;38.40;;;;;;4946077;28;82260;-87
2021/04/18 09:57:21;;;;;;;17.00;15.43;;;26.60;36.10;;;;;;4947884;28;82592;-87
2021/04/18 10:00:05;;;;;;;18.65;17.20;;;25.20;36.10;;;;;;4946102;28;83061;-87
2021/04/18 10:02:31;;;;;;;15.52;14.13;;;25.70;35.00;;;;;;4945371;28;84204;-87
2021/04/18 10:05:27;;;;;;;18.38;16.52;;;26.60;34.10;;;;;;4942535;28;82259;-87
2021/04/18 10:08:23;;;;;;;16.08;14.73;;;26.10;33.10;;;;;;4934667;28;82574;-87
2021/04/18 10:10:58;;;;;;;18.10;16.35;;;25.50;33.90;;;;;;4944196;28;83988;-84
2021/04/18 10:13:54;;;;;;;16.35;14.95;;;26.30;34.40;;;;;;4948677;28;83068;-87
2021/04/18 10:16:42;;;;;;;17.13;15.82;;;28.80;30.20;;;;;;4946623;28;83625;-87
2021/04/18 10:19:08;;;;;;;18.30;16.52;;;29.00;30.20;;;;;;4950044;28;82694;-87
2021/04/18 10:21:35;;;;;;;18.75;17.00;;;28.90;30.40;;;;;;4946985;28;83298;-87
2021/04/18 10:24:01;;;;;;;16.67;15.23;;;29.80;30.60;;;;;;4947404;28;85132;-87
2021/04/18 10:26:27;;;;;;;16.92;15.50;;;31.30;29.90;;;;;;4937800;28;83533;-87
2021/04/18 10:28:54;;;;;;;16.25;14.95;;;31.70;28.90;;;;;;4941677;28;82901;-86
2021/04/18 10:31:24;;;;;;;15.95;14.75;;;31.30;28.10;;;;;;4949492;28;82687;-86
2021/04/18 10:33:50;;;;;;;21.05;19.50;;;31.40;27.60;;;;;;4945027;28;84216;-86
2021/04/18 10:36:17;;;;;;;19.52;18.13;;;31.90;27.70;;;;;;4945076;28;84172;-88
2021/04/18 10:38:44;;;;;;;20.42;18.92;;;31.90;26.90;;;;;;4941914;28;82757;-87
2021/04/18 10:41:10;;;;;;;18.80;17.48;;;31.80;27.40;;;;;;4947463;28;84818;-86
2021/04/18 10:43:37;;;;;;;16.58;15.32;;;31.80;27.70;;;;;;4945844;28;82878;-86
2021/04/18 10:46:04;;;;;;;16.80;15.50;;;32.40;28.10;;;;;;4948338;28;83014;-87
2021/04/18 10:48:30;;;;;;;17.83;16.42;;;33.10;27.40;;;;;;4946603;28;83381;-88
2021/04/18 10:50:56;;;;;;;18.77;17.42;;;33.50;26.80;;;;;;4943049;28;83061;-86
2021/04/18 10:53:28;;;;;;;16.80;15.50;;;33.40;26.70;;;;;;4945008;28;82923;-86
2021/04/18 10:55:53;;;;;;;16.95;15.75;;;33.30;26.40;;;;;;4941058;28;83217;-85
2021/04/18 10:58:19;;;;;;;17.70;16.40;;;33.90;26.40;;;;;;4946431;28;82727;-84
2021/04/18 11:00:45;;;;;;;20.08;18.60;;;32.50;27.00;;;;;;4947702;28;83042;-86
2021/04/18 11:03:11;;;;;;;20.00;18.60;;;32.90;26.50;;;;;;4950374;28;84095;-85
2021/04/18 11:05:36;;;;;;;16.42;15.23;;;32.30;27.10;;;;;;4943908;28;82803;-84
2021/04/18 11:08:03;;;;;;;19.83;18.30;;;31.80;27.20;;;;;;4947188;28;82753;-87
2021/04/18 11:10:28;;;;;;;18.10;16.75;;;31.90;27.10;;;;;;4948877;28;82908;-86
2021/04/18 11:12:54;;;;;;;21.33;19.67;;;31.90;27.30;;;;;;4948743;28;83837;-86
2021/04/18 11:15:20;;;;;;;17.15;15.75;;;32.30;26.90;;;;;;4940631;28;82600;-85
2021/04/18 11:17:46;;;;;;;19.73;18.30;;;32.80;26.90;;;;;;4942610;28;82994;-87
2021/04/18 11:20:14;;;;;;;20.45;18.88;;;32.80;26.80;;;;;;4946733;28;83232;-87
2021/04/18 11:22:42;;;;;;;19.00;17.50;;;32.90;26.30;;;;;;4946321;28;83187;-87
2021/04/18 11:25:10;;;;;;;20.08;18.48;;;32.70;26.00;;;;;;4947053;28;83127;-86
2021/04/18 11:27:36;;;;;;;20.58;18.98;;;;;;;;;;4939077;28;83467;-86
2021/04/18 11:30:07;;;;;;;20.80;19.30;;;30.20;27.20;;;;;;4938823;28;82655;-87
2021/04/18 11:32:33;;;;;;;21.63;20.13;;;30.10;27.90;;;;;;4942975;28;83594;-86
2021/04/18 11:34:59;;;;;;;20.42;18.98;;;30.10;27.80;;;;;;4938199;28;85463;-86
2021/04/18 11:37:25;;;;;;;19.77;18.17;;;29.80;27.80;;;;;;4949284;28;82532;-86
2021/04/18 11:39:51;;;;;;;20.55;18.95;;;;;;;;;;4947000;28;82442;-85
2021/04/18 11:42:17;;;;;;;20.25;18.75;;;30.10;26.90;;;;;;4950018;28;84753;-87
2021/04/18 11:44:42;;;;;;;20.08;18.38;;;29.60;27.70;;;;;;4949595;28;82666;-86
2021/04/18 11:47:09;;;;;;;20.13;18.58;;;29.00;28.50;;;;;;4947697;28;82601;-88
2021/04/18 11:49:35;;;;;;;19.48;17.98;;;28.80;28.70;;;;;;4949408;28;83004;-86
2021/04/18 11:52:01;;;;;;;19.73;18.17;;;28.50;27.90;;;;;;4938332;28;84405;-85
2021/04/18 11:54:27;;;;;;;19.13;17.73;;;26.90;28.60;;;;;;4946822;28;83459;-84
2021/04/18 11:56:53;;;;;;;21.98;20.17;;;26.80;28.90;;;;;;4944383;28;82669;-84
2021/04/18 11:59:18;;;;;;;19.40;17.90;;;26.50;29.50;;;;;;4950334;28;83820;-84
2021/04/18 12:01:44;;;;;;;18.98;17.48;;;26.00;29.40;;;;;;4944941;28;83346;-84
2021/04/18 12:04:10;;;;;;;20.50;19.00;;;25.50;30.10;;;;;;4945510;28;82715;-84
2021/04/18 12:06:36;;;;;;;20.85;19.20;;;25.90;30.20;;;;;;4958221;28;81974;-83
2021/04/18 12:09:02;;;;;;;22.13;20.08;;;26.60;30.00;;;;;;4960770;28;82647;-86
2021/04/18 12:11:27;;;;;;;21.13;19.55;;;26.50;30.00;;;;;;4958905;28;83459;-86
2021/04/18 12:13:54;;;;;;;21.63;19.92;;;25.80;30.30;;;;;;4965158;28;83177;-86
2021/04/18 12:16:20;;;;;;;23.15;21.15;;;25.30;30.20;;;;;;4959346;28;82910;-85
2021/04/18 12:18:46;;;;;;;25.23;22.92;;;24.40;31.00;;;;;;4965800;28;83690;-86
2021/04/18 12:21:12;;;;;;;24.88;22.67;;;23.20;32.40;;;;;;4960347;28;82538;-85
2021/04/18 12:23:37;;;;;;;21.90;19.75;;;22.50;33.90;;;;;;4949896;28;84018;-86
2021/04/18 12:26:04;;;;;;;20.75;18.95;;;22.60;34.30;;;;;;4956024;28;82113;-85
2021/04/18 12:28:31;;;;;;;19.13;17.52;;;22.90;33.30;;;;;;4958341;28;81862;-85
2021/04/18 12:30:57;;;;;;;18.85;17.23;;;23.30;33.00;;;;;;4957446;28;82985;-85
2021/04/18 12:33:23;;;;;;;17.58;15.95;;;23.60;32.10;;;;;;4959830;28;82116;-85
2021/04/18 12:35:49;;;;;;;16.92;15.57;;;23.90;32.50;;;;;;4964574;28;82490;-85
2021/04/18 12:38:16;;;;;;;18.02;16.45;;;24.10;32.80;;;;;;4964890;28;83109;-84
2021/04/18 12:40:42;;;;;;;18.60;17.10;;;24.10;32.80;;;;;;4956513;28;82230;-84
2021/04/18 12:43:08;;;;;;;16.85;15.25;;;24.20;32.40;;;;;;4965325;28;82112;-84
2021/04/18 12:45:33;;;;;;;17.52;16.10;;;24.10;32.00;;;;;;4963218;28;82530;-84
2021/04/18 12:47:59;;;;;;;17.38;15.85;;;24.10;31.40;;;;;;4960991;28;82400;-85
2021/04/18 12:50:26;;;;;;;17.75;16.35;;;23.40;32.20;;;;;;4954216;28;83570;-84
2021/04/18 12:52:53;;;;;;;17.50;16.10;;;23.30;32.40;;;;;;4957493;28;82143;-84
2021/04/18 12:55:20;;;;;;;15.82;14.45;;;22.20;34.10;;;;;;4947297;28;82218;-84
2021/04/18 12:57:46;;;;;;;16.08;14.73;;;21.50;34.60;;;;;;4950137;28;82663;-84
2021/04/18 13:00:14;;;;;;;16.17;14.90;;;20.90;36.10;;;;;;4948301;28;83203;-83
2021/04/18 13:02:40;;;;;;;16.10;14.90;;;20.40;36.50;;;;;;4945795;28;82889;-84
2021/04/18 13:05:07;;;;;;;16.45;14.93;;;20.40;36.90;;;;;;4945830;28;82520;-84
2021/04/18 13:07:35;;;;;;;17.08;15.48;;;20.50;36.10;;;;;;4943542;28;82506;-84
2021/04/18 13:10:07;;;;;;;16.40;15.02;;;20.60;36.40;;;;;;4951403;28;83216;-84
2021/04/18 13:12:33;;;;;;;15.65;14.35;;;21.20;36.90;;;;;;4942040;28;83700;-84
2021/04/18 13:15:00;;;;;;;15.07;13.82;;;22.40;33.80;;;;;;4952083;28;82608;-85
2021/04/18 13:17:27;;;;;;;14.90;13.75;;;22.40;33.70;;;;;;4950136;28;82055;-85
2021/04/18 13:19:53;;;;;;;15.43;14.23;;;22.60;34.50;;;;;;4948981;28;84438;-85
2021/04/18 13:22:19;;;;;;;15.52;14.32;;;23.00;34.40;;;;;;4949277;28;82294;-84
2021/04/18 13:24:45;;;;;;;16.05;14.73;;;23.50;33.60;;;;;;4947522;28;82556;-84
2021/04/18 13:27:11;;;;;;;17.02;15.73;;;23.90;32.50;;;;;;4954715;28;83330;-85
2021/04/18 13:29:37;;;;;;;14.50;13.30;;;23.90;33.10;;;;;;4945273;28;84462;-85
2021/04/18 13:32:03;;;;;;;16.60;15.23;;;23.30;33.20;;;;;;4940695;28;82887;-85
2021/04/18 13:34:28;;;;;;;17.65;15.98;;;23.10;33.90;;;;;;4945559;28;82563;-84
2021/04/18 13:36:55;;;;;;;16.10;14.90;;;23.10;33.50;;;;;;4939327;28;85117;-85
2021/04/18 13:39:21;;;;;;;15.43;14.23;;;22.40;34.60;;;;;;4938414;28;83379;-85
2021/04/18 13:41:47;;;;;;;15.00;13.88;;;22.00;34.80;;;;;;4946011;28;83481;-85
2021/04/18 13:44:16;;;;;;;14.95;13.85;;;21.00;35.50;;;;;;4945172;28;82676;-85
2021/04/18 13:46:46;;;;;;;15.30;14.10;;;20.90;36.00;;;;;;4943330;28;83609;-85
2021/04/18 13:49:12;;;;;;;16.05;14.68;;;20.50;35.80;;;;;;4947638;28;83449;-85
2021/04/18 13:51:38;;;;;;;16.25;14.95;;;19.50;36.80;;;;;;4944648;28;82721;-86
2021/04/18 13:54:05;;;;;;;15.63;14.32;;;19.30;38.00;;;;;;4950952;28;82695;-87
2021/04/18 13:56:31;;;;;;;15.82;14.48;;;18.50;38.50;;;;;;4953588;28;82098;-85
2021/04/18 13:58:57;;;;;;;16.00;14.70;;;18.70;39.00;;;;;;4952311;28;82739;-86
2021/04/18 14:01:23;;;;;;;16.02;14.60;;;18.20;39.00;;;;;;4951760;28;83344;-87
2021/04/18 14:03:52;;;;;;;14.82;13.63;;;18.00;40.50;;;;;;4952413;28;83516;-85
2021/04/18 14:06:19;;;;;;;15.43;14.13;;;17.60;40.30;;;;;;4951296;28;82235;-87
2021/04/18 14:08:45;;;;;;;15.18;13.98;;;17.70;40.80;;;;;;4950004;28;82347;-85
2021/04/18 14:11:11;;;;;;;15.85;14.65;;;;;;;;;;4951736;28;83119;-85
2021/04/18 14:13:37;;;;;;;16.40;15.23;;;17.90;40.80;;;;;;4950121;28;82769;-85
2021/04/18 14:16:04;;;;;;;14.82;13.65;;;17.90;39.50;;;;;;4949409;28;83712;-85
2021/04/18 14:18:30;;;;;;;15.25;14.05;;;17.90;39.20;;;;;;4946789;28;83496;-85
2021/04/18 14:20:55;;;;;;;12.95;11.85;;;17.90;39.70;;;;;;4950260;28;84252;-85
2021/04/18 14:23:21;;;;;;;14.18;13.07;;;17.80;39.40;;;;;;4950795;28;82535;-86
2021/04/18 14:25:47;;;;;;;14.77;13.63;;;17.00;40.30;;;;;;4945257;28;83153;-85
2021/04/18 14:28:13;;;;;;;16.05;14.55;;;16.70;40.90;;;;;;4944274;28;83941;-85
2021/04/18 14:30:39;;;;;;;14.95;13.55;;;17.30;41.90;;;;;;4949034;28;82758;-85
2021/04/18 14:33:06;;;;;;;15.43;14.05;;;17.00;42.30;;;;;;4951148;28;81986;-85
2021/04/18 14:35:32;;;;;;;15.02;13.82;;;16.60;42.40;;;;;;4952266;28;83358;-86
2021/04/18 14:37:58;;;;;;;15.90;14.60;;;17.00;42.80;;;;;;4951012;28;82757;-85
2021/04/18 14:40:23;;;;;;;12.75;11.55;;;16.60;43.00;;;;;;4945966;28;82819;-85
2021/04/18 14:42:49;;;;;;;15.45;14.15;;;16.80;42.50;;;;;;4954167;28;81986;-86
2021/04/18 14:45:15;;;;;;;15.45;14.05;;;16.60;42.40;;;;;;4946668;28;82764;-86
2021/04/18 14:47:41;;;;;;;14.65;13.35;;;16.90;42.80;;;;;;4947616;28;83359;-85
2021/04/18 14:50:08;;;;;;;14.63;13.38;;;16.70;42.30;;;;;;4950989;28;82602;-86
2021/04/18 14:52:33;;;;;;;13.73;12.63;;;16.60;42.60;;;;;;4947352;28;82787;-86
2021/04/18 14:54:59;;;;;;;14.60;13.30;;;16.20;41.50;;;;;;4942179;28;82398;-84
2021/04/18 14:57:25;;;;;;;12.27;11.27;;;16.40;42.20;;;;;;4950714;28;83320;-85
2021/04/18 14:59:51;;;;;;;12.77;11.77;;;16.20;41.80;;;;;;4948107;28;82683;-84
2021/04/18 15:02:16;;;;;;;12.82;11.73;;;16.00;41.90;;;;;;4945821;28;84711;-86
2021/04/18 15:04:42;;;;;;;13.90;12.60;;;16.00;42.60;;;;;;4950447;28;83132;-85
2021/04/18 15:07:09;;;;;;;13.77;12.77;;;15.80;42.60;;;;;;4950879;28;83707;-85
2021/04/18 15:09:35;;;;;;;14.05;12.85;;;15.60;42.50;;;;;;4949069;28;82727;-86
2021/04/18 15:12:03;;;;;;;13.10;12.00;;;15.60;44.10;;;;;;4946498;28;83215;-85
2021/04/18 15:14:28;;;;;;;12.15;11.05;;;15.30;44.40;;;;;;4948695;28;82595;-85
2021/04/18 15:16:54;;;;;;;15.43;14.18;;;14.70;44.70;;;;;;4951961;28;84616;-85
2021/04/18 15:19:20;;;;;;;14.73;13.43;;;14.90;44.90;;;;;;4949320;28;82960;-85
2021/04/18 15:21:47;;;;;;;15.20;13.98;;;15.00;46.00;;;;;;4943315;28;83719;-85
2021/04/18 15:24:14;;;;;;;15.35;13.93;;;14.50;45.30;;;;;;4951773;28;82660;-85
2021/04/18 15:26:48;;;;;;;13.77;12.38;;;14.20;46.20;;;;;;4941926;28;82434;-85
2021/04/18 15:29:13;;;;;;;14.98;13.68;;;13.60;46.60;;;;;;4949312;28;82869;-85
2021/04/18 15:31:39;;;;;;;14.45;13.15;;;14.00;46.70;;;;;;4945875;28;82014;-85
2021/04/18 15:34:05;;;;;;;14.35;13.18;;;;;;;;;;4946686;28;82843;-85
2021/04/18 15:36:32;;;;;;;11.90;10.70;;;14.10;47.40;;;;;;4949861;28;82919;-85
2021/04/18 15:38:59;;;;;;;15.45;13.95;;;14.60;48.20;;;;;;4940357;28;82633;-85
2021/04/18 15:41:24;;;;;;;15.32;13.88;;;14.50;48.10;;;;;;4945568;28;82802;-85
2021/04/18 15:43:50;;;;;;;15.07;13.77;;;14.00;48.00;;;;;;4949545;28;82036;-85
2021/04/18 15:46:16;;;;;;;14.45;13.25;;;14.60;48.10;;;;;;4951121;28;82135;-85
2021/04/18 15:48:42;;;;;;;12.48;11.18;;;14.80;48.40;;;;;;4960243;28;83813;-85
2021/04/18 15:51:10;;;;;;;14.75;13.48;;;14.90;47.60;;;;;;4951309;28;82545;-85
2021/04/18 15:53:38;;;;;;;13.00;11.80;;;14.90;48.10;;;;;;4947437;28;83123;-85
2021/04/18 15:56:07;;;;;;;12.70;11.40;;;15.10;47.60;;;;;;4948830;28;82977;-85
2021/04/18 15:58:34;;;;;;;15.57;14.27;;;15.10;47.20;;;;;;4947728;28;82528;-85
2021/04/18 16:01:02;;;;;;;15.65;14.15;;;15.50;48.00;;;;;;4949213;28;82660;-84
2021/04/18 16:03:29;;;;;;;13.60;12.30;;;15.10;48.10;;;;;;4951208;28;84836;-83
2021/04/18 16:05:55;;;;;;;16.30;14.65;;;15.60;47.50;;;;;;4945758;28;82221;-84
2021/04/18 16:08:21;;;;;;;13.55;12.05;;;15.00;48.20;;;;;;4948103;28;82875;-84
2021/04/18 16:10:46;;;;;;;15.38;13.95;;;14.10;47.30;;;;;;4944325;28;83057;-84
2021/04/18 16:13:12;;;;;;;14.57;13.20;;;14.30;48.00;;;;;;4950184;28;84326;-86
2021/04/18 16:15:38;;;;;;;14.65;13.43;;;14.50;48.40;;;;;;4946592;28;82898;-86
2021/04/18 16:18:04;;;;;;;16.02;14.73;;;14.00;48.60;;;;;;4948299;28;83013;-82
2021/04/18 16:20:30;;;;;;;14.88;13.75;;;14.20;49.80;;;;;;4946668;28;82195;-86
2021/04/18 16:22:55;;;;;;;15.45;14.15;;;13.70;48.80;;;;;;4946239;28;82792;-85
2021/04/18 16:25:21;;;;;;;14.77;13.35;;;14.00;49.50;;;;;;4950207;28;82974;-85
2021/04/18 16:27:47;;;;;;;15.73;14.23;;;14.00;50.30;;;;;;4949783;28;82508;-86
2021/04/18 16:30:14;;;;;;;14.95;13.55;;;13.90;51.10;;;;;;4950271;28;82012;-85
2021/04/18 16:32:39;;;;;;;12.52;11.23;;;13.70;50.60;;;;;;4951962;28;82555;-85
2021/04/18 16:35:09;;;;;;;13.52;12.13;;;13.70;51.00;;;;;;4949332;28;82154;-85
2021/04/18 16:37:35;;;;;;;16.73;15.13;;;13.20;50.80;;;;;;4949326;28;82209;-85